createdAt,value
2022-09-11T00:04:00.836Z,52.80
2022-09-11T00:10:14.527Z,48.05
2022-09-11T00:16:27.577Z,37.55
2022-09-11T00:22:41.413Z,34.60
2022-09-11T00:28:53.051Z,34.10
2022-09-11T00:35:05.884Z,29.92
2022-09-11T00:41:20.284Z,25.30
2022-09-11T00:47:29.563Z,27.02
2022-09-11T00:53:43.521Z,22.48
2022-09-11T00:59:56.571Z,22.70
2022-09-11T01:12:27.953Z,18.03
2022-09-11T01:18:43.707Z,17.35
2022-09-11T01:25:11.922Z,17.52
2022-09-11T01:31:26.170Z,15.85
2022-09-11T01:37:40.957Z,15.55
2022-09-11T01:43:55.677Z,14.60
2022-09-11T01:50:06.349Z,15.58
2022-09-11T01:56:18.024Z,12.65
2022-09-11T02:02:29.640Z,11.60
2022-09-11T02:08:48.725Z,12.37
2022-09-11T02:15:01.778Z,11.00
2022-09-11T02:21:13.191Z,11.03
2022-09-11T02:27:24.404Z,10.85
2022-09-11T02:33:34.729Z,9.35
2022-09-11T02:46:39.882Z,9.98
2022-09-11T02:52:55.174Z,8.68
2022-09-11T02:59:07.686Z,7.25
2022-09-11T03:05:19.343Z,6.30
2022-09-11T03:11:34.749Z,8.10
2022-09-11T03:17:50.393Z,7.13
2022-09-11T03:24:03.104Z,7.90
2022-09-11T03:30:18.843Z,5.65
2022-09-11T03:36:31.500Z,5.33
2022-09-11T03:42:45.911Z,5.25
2022-09-11T03:48:56.604Z,5.10
2022-09-11T03:55:05.384Z,5.42
2022-09-11T04:01:21.311Z,5.17
2022-09-11T04:07:37.218Z,3.92
2022-09-11T04:13:49.920Z,4.30
2022-09-11T04:20:01.959Z,4.45
2022-09-11T04:26:23.168Z,4.33
2022-09-11T04:32:34.880Z,4.25
2022-09-11T04:38:47.518Z,4.95
2022-09-11T04:44:58.353Z,4.72
2022-09-11T04:51:13.792Z,4.92
2022-09-11T04:57:26.644Z,3.72
2022-09-11T05:03:37.277Z,3.58
2022-09-11T05:09:50.443Z,3.90
2022-09-11T05:16:06.780Z,3.25
2022-09-11T05:22:19.614Z,3.67
2022-09-11T05:28:33.862Z,3.15
2022-09-11T05:34:42.962Z,3.42
2022-09-11T05:40:53.295Z,3.05
2022-09-11T05:47:05.024Z,2.47
2022-09-11T05:53:16.413Z,2.90
2022-09-11T05:59:27.427Z,3.10
2022-09-11T06:05:38.089Z,2.95
2022-09-11T06:11:50.564Z,2.62
2022-09-11T06:18:02.015Z,2.87
2022-09-11T06:24:16.857Z,2.62
2022-09-11T06:30:29.467Z,2.77
2022-09-11T06:36:42.634Z,2.62
2022-09-11T06:42:56.539Z,2.72
2022-09-11T06:49:07.295Z,3.33
2022-09-11T06:55:21.914Z,2.67
2022-09-11T07:01:32.334Z,2.87
2022-09-11T07:07:46.620Z,3.12
2022-09-11T07:13:57.406Z,2.50
2022-09-11T07:20:12.531Z,1.98
2022-09-11T07:26:25.245Z,2.33
2022-09-11T07:32:35.890Z,2.37
2022-09-11T07:38:47.824Z,3.10
2022-09-11T07:44:58.274Z,2.55
2022-09-11T07:51:08.698Z,2.33
2022-09-11T07:57:23.756Z,2.92
2022-09-11T08:03:35.539Z,3.20
2022-09-11T08:09:44.552Z,2.22
2022-09-11T08:15:54.241Z,3.02
2022-09-11T08:22:06.706Z,2.40
2022-09-11T08:28:21.126Z,2.33
2022-09-11T08:34:34.026Z,2.83
2022-09-11T08:40:44.989Z,2.30
2022-09-11T08:46:56.386Z,2.42
2022-09-11T08:53:12.773Z,2.55
2022-09-11T08:59:29.490Z,2.17
2022-09-11T09:05:43.675Z,2.15
2022-09-11T09:11:59.229Z,2.33
2022-09-11T09:18:12.950Z,2.72
2022-09-11T09:24:22.077Z,2.15
2022-09-11T09:30:31.682Z,1.45
2022-09-11T09:36:44.170Z,1.90
2022-09-11T09:43:09.327Z,2.10
2022-09-11T09:49:25.768Z,1.80
2022-09-11T09:55:38.261Z,2.00
2022-09-11T10:01:50.215Z,1.80
2022-09-11T10:08:03.977Z,2.33
2022-09-11T10:14:28.922Z,1.37
2022-09-11T10:20:33.789Z,2.67
2022-09-11T10:26:48.377Z,1.70
2022-09-11T10:33:03.308Z,2.12
2022-09-11T10:39:17.275Z,2.83
2022-09-11T10:45:30.272Z,1.25
2022-09-11T10:51:47.564Z,2.22
2022-09-11T10:57:58.617Z,2.00
2022-09-11T11:04:14.016Z,1.72
2022-09-11T11:10:30.015Z,1.82
2022-09-11T11:16:44.950Z,2.50
2022-09-11T11:23:34.956Z,1.85
2022-09-11T11:29:55.110Z,1.80
2022-09-11T11:36:09.706Z,1.92
2022-09-11T11:42:25.400Z,1.65
2022-09-11T11:48:40.176Z,1.80
2022-09-11T11:54:54.742Z,1.85
2022-09-11T12:01:06.368Z,1.80
2022-09-11T12:07:21.856Z,1.55
2022-09-11T12:13:40.184Z,1.77
2022-09-11T12:20:11.408Z,1.52
2022-09-11T12:26:27.217Z,1.65
2022-09-11T12:32:54.641Z,1.93
2022-09-11T12:39:06.975Z,1.42
2022-09-11T12:45:36.948Z,1.67
2022-09-11T12:51:53.434Z,1.50
2022-09-11T12:58:06.121Z,1.75
2022-09-11T13:04:22.223Z,2.25
2022-09-11T13:10:38.067Z,1.55
2022-09-11T13:16:53.424Z,1.97
2022-09-11T13:23:17.851Z,1.90
2022-09-11T13:29:27.930Z,1.72
2022-09-11T13:35:42.050Z,1.92
2022-09-11T13:41:55.661Z,2.87
2022-09-11T13:48:11.048Z,1.90
2022-09-11T13:54:24.901Z,1.80
2022-09-11T14:00:50.994Z,2.10
2022-09-11T14:07:01.661Z,1.87
2022-09-11T14:13:17.897Z,2.40
2022-09-11T14:19:31.698Z,2.60
2022-09-11T14:25:48.056Z,1.85
2022-09-11T14:38:08.072Z,2.40
2022-09-11T14:44:22.775Z,2.70
2022-09-11T14:50:35.861Z,2.35
2022-09-11T14:56:46.558Z,2.47
2022-09-11T15:02:55.495Z,1.92
2022-09-11T15:09:07.073Z,2.05
2022-09-11T15:15:20.399Z,2.85
2022-09-11T15:21:36.742Z,2.58
2022-09-11T15:27:47.560Z,1.92
2022-09-11T15:34:01.757Z,1.90
2022-09-11T15:40:20.624Z,2.83
2022-09-11T15:46:31.538Z,3.25
2022-09-11T15:52:45.747Z,2.67
2022-09-11T15:58:58.380Z,3.55
2022-09-11T16:05:09.310Z,2.30
2022-09-11T16:11:27.010Z,2.02
2022-09-11T16:17:37.775Z,2.58
2022-09-11T16:23:56.802Z,2.85
2022-09-11T16:36:21.934Z,7.45
2022-09-11T16:42:34.847Z,5.08
2022-09-11T16:48:50.612Z,6.30
2022-09-11T16:54:58.008Z,5.10
2022-09-11T17:01:08.733Z,4.25
2022-09-11T17:07:22.391Z,6.72
2022-09-11T17:13:33.888Z,4.78
2022-09-11T17:19:47.576Z,4.03
2022-09-11T17:25:56.736Z,3.85
2022-09-11T17:32:27.127Z,3.35
2022-09-11T17:38:24.965Z,3.25
2022-09-11T17:44:39.074Z,4.40
2022-09-11T17:50:54.006Z,4.70
2022-09-11T17:57:04.679Z,3.90
2022-09-11T18:03:17.060Z,3.90
2022-09-11T18:09:28.124Z,2.60
2022-09-11T18:15:40.616Z,3.45
2022-09-11T18:21:53.618Z,2.67
2022-09-11T18:28:03.356Z,3.45
2022-09-11T18:34:14.118Z,3.08
2022-09-11T18:40:23.542Z,3.37
2022-09-11T18:46:34.012Z,1.98
2022-09-11T18:52:46.838Z,2.80
2022-09-11T18:58:57.630Z,2.90
2022-09-11T19:05:07.138Z,2.15
2022-09-11T19:11:21.709Z,3.27
2022-09-11T19:17:32.656Z,1.95
2022-09-11T19:23:46.878Z,3.25
2022-09-11T19:30:00.629Z,2.70
2022-09-11T19:36:19.775Z,3.15
2022-09-11T19:42:31.034Z,2.00
2022-09-11T19:48:43.514Z,2.40
2022-09-11T19:54:54.687Z,3.50
2022-09-11T20:01:08.995Z,2.60
2022-09-11T20:07:21.823Z,2.47
2022-09-11T20:13:33.809Z,1.87
2022-09-11T20:19:47.246Z,2.05
2022-09-11T20:26:00.448Z,2.00
2022-09-11T20:32:14.658Z,1.67
2022-09-11T20:38:29.042Z,2.72
2022-09-11T20:44:40.824Z,2.37
2022-09-11T20:50:54.721Z,3.05
2022-09-11T20:57:04.190Z,2.17
2022-09-11T21:03:16.117Z,2.60
2022-09-11T21:09:28.941Z,3.10
2022-09-11T21:15:41.692Z,2.60
2022-09-11T21:21:54.171Z,3.05
2022-09-11T21:28:03.310Z,3.02
2022-09-11T21:34:13.030Z,2.50
2022-09-11T21:40:23.419Z,1.77
2022-09-11T21:46:35.256Z,2.50
2022-09-11T21:52:45.079Z,1.90
2022-09-11T21:58:57.369Z,1.75
2022-09-11T22:05:08.009Z,2.40
2022-09-11T22:11:18.947Z,2.27
2022-09-11T22:17:29.948Z,1.80
2022-09-11T22:23:40.703Z,2.02
2022-09-11T22:29:53.270Z,2.83
2022-09-11T22:36:06.187Z,1.87
2022-09-11T22:42:20.370Z,2.37
2022-09-11T22:48:32.838Z,2.17
2022-09-11T22:54:49.324Z,1.72
2022-09-11T23:01:00.818Z,1.75
2022-09-11T23:07:21.211Z,2.35
2022-09-11T23:13:33.421Z,1.45
2022-09-11T23:19:42.018Z,1.07
2022-09-11T23:25:51.035Z,1.95
2022-09-11T23:32:02.628Z,1.92
2022-09-11T23:38:15.639Z,2.33
2022-09-11T23:44:26.251Z,1.42
2022-09-11T23:50:36.647Z,1.40
2022-09-11T23:56:48.810Z,2.55
